Time;durP1;ratioP1;P1;durP2;ratioP2;P2;SDS_P1;SDS_P2;PMS_P1;PMS_P2;Temp;Humidity;BMP_temperature;BMP_pressure;BME280_temperature;BME280_humidity;BME280_pressure;Samples;Min_cycle;Max_cycle;Signal;HPM_P1;HPM_P2
2021/04/30 00:01:14;;;;;;;1.38;1.27;;;11.40;99.90;;;;;;5073150;28;20110;-85
2021/04/30 00:03:40;;;;;;;2.00;1.80;;;11.40;99.90;;;;;;5073321;28;20499;-85
2021/04/30 00:06:05;;;;;;;2.15;1.92;;;11.30;99.90;;;;;;5073224;28;20020;-82
2021/04/30 00:08:31;;;;;;;2.58;2.00;;;11.30;99.90;;;;;;5073293;28;20033;-80
2021/04/30 00:10:57;;;;;;;2.03;1.80;;;11.20;99.90;;;;;;5073262;28;20028;-84
2021/04/30 00:13:23;;;;;;;2.38;1.73;;;11.10;99.90;;;;;;5073199;28;20426;-85
2021/04/30 00:15:49;;;;;;;2.83;1.52;;;11.10;99.90;;;;;;5073106;28;20070;-85
2021/04/30 00:18:14;;;;;;;2.53;1.73;;;11.00;99.90;;;;;;5072205;28;20020;-81
2021/04/30 00:20:50;;;;;;;1.60;1.40;;;11.00;99.90;;;;;;5072154;28;20078;-80
2021/04/30 00:23:16;;;;;;;1.83;1.60;;;10.90;99.90;;;;;;5072005;28;20048;-80
2021/04/30 00:25:42;;;;;;;1.52;1.40;;;10.90;99.90;;;;;;5071878;28;20078;-80
2021/04/30 00:28:08;;;;;;;1.90;1.70;;;10.90;99.90;;;;;;5073268;28;20033;-81
2021/04/30 00:30:35;;;;;;;2.13;1.42;;;10.90;99.90;;;;;;5073176;28;20025;-80
2021/04/30 00:33:00;;;;;;;1.95;1.20;;;10.90;99.90;;;;;;5072066;28;20021;-80
2021/04/30 00:35:26;;;;;;;2.28;1.60;;;10.90;99.90;;;;;;5072302;28;20036;-82
2021/04/30 00:37:52;;;;;;;2.47;1.40;;;10.80;99.90;;;;;;5071734;28;20025;-83
2021/04/30 00:40:18;;;;;;;1.88;1.70;;;10.80;99.90;;;;;;5072066;28;20028;-80
2021/04/30 00:42:44;;;;;;;1.67;1.35;;;10.80;99.90;;;;;;5073063;28;20025;-81
2021/04/30 00:45:19;;;;;;;2.17;1.45;;;10.80;99.90;;;;;;5071915;28;20028;-81
2021/04/30 00:47:45;;;;;;;2.07;1.43;;;10.90;99.90;;;;;;5072066;28;20023;-81
2021/04/30 00:50:12;;;;;;;1.80;1.60;;;10.90;99.90;;;;;;5071753;28;20029;-80
2021/04/30 00:52:39;;;;;;;2.28;1.63;;;10.80;99.90;;;;;;5071812;28;20488;-81
2021/04/30 00:55:16;;;;;;;2.10;1.90;;;10.80;99.90;;;;;;5071997;28;20464;-83
2021/04/30 00:58:00;;;;;;;3.13;1.80;;;10.80;99.90;;;;;;5071728;28;20388;-82
2021/04/30 01:00:29;;;;;;;5.35;2.60;;;10.90;99.90;;;;;;5071776;28;20048;-79
2021/04/30 01:02:55;;;;;;;2.83;2.22;;;10.90;99.90;;;;;;5071597;28;20020;-81
2021/04/30 01:05:22;;;;;;;2.78;2.30;;;11.00;99.90;;;;;;5071596;28;20035;-80
2021/04/30 01:07:47;;;;;;;3.60;2.08;;;11.00;99.90;;;;;;5075420;28;20039;-80
2021/04/30 01:10:14;;;;;;;2.60;2.05;;;11.00;99.90;;;;;;5075588;28;20021;-81
2021/04/30 01:12:40;;;;;;;4.05;2.40;;;11.00;99.90;;;;;;5075422;28;20048;-81
2021/04/30 01:15:07;;;;;;;3.35;2.08;;;11.10;99.90;;;;;;5075301;28;20020;-80
2021/04/30 01:17:36;;;;;;;4.00;1.83;;;11.10;99.90;;;;;;5075261;28;20024;-80
2021/04/30 01:20:04;;;;;;;2.53;1.58;;;11.10;99.90;;;;;;5075291;28;20223;-82
2021/04/30 01:22:38;;;;;;;2.30;1.65;;;11.10;99.90;;;;;;5075235;28;20027;-80
2021/04/30 01:25:06;;;;;;;2.35;1.70;;;11.20;99.90;;;;;;5076404;28;20055;-84
2021/04/30 01:27:32;;;;;;;7.15;2.97;;;11.20;99.90;;;;;;5075024;28;20456;-80
2021/04/30 01:29:58;;;;;;;3.67;2.55;;;11.20;99.90;;;;;;5075153;28;20044;-80
2021/04/30 01:32:24;;;;;;;4.78;3.58;;;11.30;99.90;;;;;;5074946;28;20502;-79
2021/04/30 01:34:50;;;;;;;4.80;3.30;;;11.20;99.90;;;;;;5076339;28;20488;-80
2021/04/30 01:37:16;;;;;;;7.28;4.60;;;11.30;99.90;;;;;;5075174;28;20099;-81
2021/04/30 01:39:42;;;;;;;8.07;4.10;;;11.20;99.90;;;;;;5075002;28;20025;-81
2021/04/30 01:42:08;;;;;;;5.03;3.67;;;11.20;99.90;;;;;;5074879;28;20020;-80
2021/04/30 01:44:34;;;;;;;5.45;3.83;;;11.20;99.90;;;;;;5074968;28;20017;-83
2021/04/30 01:47:01;;;;;;;5.68;4.10;;;11.20;99.90;;;;;;5074895;28;20024;-82
2021/04/30 01:49:27;;;;;;;8.98;5.07;;;11.10;99.90;;;;;;5074773;28;20032;-80
2021/04/30 01:51:54;;;;;;;7.30;5.53;;;11.20;99.90;;;;;;5076192;28;20091;-81
2021/04/30 01:54:20;;;;;;;6.72;4.72;;;11.20;99.90;;;;;;5074977;28;20467;-80
2021/04/30 01:56:46;;;;;;;6.00;4.25;;;11.20;99.90;;;;;;5074939;28;20034;-83
2021/04/30 01:59:12;;;;;;;6.63;4.00;;;11.20;99.90;;;;;;5074799;28;20024;-81
2021/04/30 02:01:38;;;;;;;6.15;4.28;;;11.20;99.90;;;;;;5074663;28;20068;-82
2021/04/30 02:04:07;;;;;;;7.63;3.65;;;11.20;99.90;;;;;;5074673;28;20133;-81
2021/04/30 02:06:34;;;;;;;3.88;3.33;;;11.20;99.90;;;;;;5074492;28;20107;-80
2021/04/30 02:09:00;;;;;;;5.10;4.05;;;11.20;99.90;;;;;;5074278;28;20187;-81
2021/04/30 02:11:26;;;;;;;6.18;3.35;;;11.30;99.90;;;;;;5074240;28;20025;-82
2021/04/30 02:13:51;;;;;;;5.32;3.58;;;11.20;99.90;;;;;;5073942;28;20391;-80
2021/04/30 02:16:17;;;;;;;7.22;3.60;;;11.30;99.90;;;;;;5074453;28;20032;-82
2021/04/30 02:18:43;;;;;;;3.53;3.10;;;11.20;99.90;;;;;;5073041;28;20025;-82
2021/04/30 02:21:08;;;;;;;3.03;2.70;;;11.20;99.90;;;;;;5074107;28;20028;-81
2021/04/30 02:23:34;;;;;;;5.15;3.75;;;11.20;99.90;;;;;;5074274;28;20031;-81
2021/04/30 02:26:00;;;;;;;4.05;3.20;;;11.20;99.90;;;;;;5075424;28;20083;-80
2021/04/30 02:28:25;;;;;;;5.28;3.13;;;11.10;99.90;;;;;;5073856;28;20036;-80
2021/04/30 02:30:51;;;;;;;6.13;3.50;;;11.20;99.90;;;;;;5074212;28;20073;-81
2021/04/30 02:33:17;;;;;;;5.45;3.33;;;11.10;99.90;;;;;;5074120;28;20028;-83
2021/04/30 02:35:45;;;;;;;5.32;3.53;;;11.10;99.90;;;;;;5073963;28;20155;-82
2021/04/30 02:38:12;;;;;;;4.43;3.42;;;11.20;99.90;;;;;;5073892;28;20027;-81
2021/04/30 02:40:40;;;;;;;4.47;3.10;;;11.20;99.90;;;;;;5074172;28;20069;-81
2021/04/30 02:43:09;;;;;;;3.75;3.25;;;11.30;99.90;;;;;;5075409;28;20078;-79
2021/04/30 02:45:35;;;;;;;4.88;3.13;;;11.30;99.90;;;;;;5073892;28;20063;-81
2021/04/30 02:48:08;;;;;;;4.22;2.95;;;11.20;99.90;;;;;;5073630;28;20074;-83
2021/04/30 02:50:34;;;;;;;7.03;3.40;;;11.20;99.90;;;;;;5073847;28;20029;-80
2021/04/30 02:52:59;;;;;;;4.53;3.67;;;11.20;99.90;;;;;;5074654;28;20036;-82
2021/04/30 02:55:25;;;;;;;3.67;2.88;;;11.10;99.90;;;;;;5073543;28;20028;-81
2021/04/30 02:57:57;;;;;;;3.38;2.80;;;11.10;99.90;;;;;;5073364;28;20025;-81
2021/04/30 03:00:26;;;;;;;6.45;4.13;;;11.10;99.90;;;;;;5073300;28;20082;-80
2021/04/30 03:02:52;;;;;;;5.70;4.32;;;11.10;99.90;;;;;;5073471;28;20067;-82
2021/04/30 03:05:18;;;;;;;6.32;4.00;;;11.00;99.90;;;;;;5073433;28;20357;-81
2021/04/30 03:07:44;;;;;;;4.13;3.70;;;11.10;99.90;;;;;;5073543;28;20023;-81
2021/04/30 03:10:11;;;;;;;4.43;3.53;;;11.00;99.90;;;;;;5073533;28;20032;-80
2021/04/30 03:12:37;;;;;;;5.82;3.70;;;11.10;99.90;;;;;;5073285;28;20098;-80
2021/04/30 03:15:04;;;;;;;5.28;3.50;;;11.00;99.90;;;;;;5074448;28;20075;-81
2021/04/30 03:17:30;;;;;;;4.22;3.47;;;11.10;99.90;;;;;;5072589;28;20024;-80
2021/04/30 03:19:56;;;;;;;5.55;3.50;;;11.00;99.90;;;;;;5072359;28;20017;-81
2021/04/30 03:22:22;;;;;;;4.30;3.50;;;11.00;99.90;;;;;;5073586;28;20510;-80
2021/04/30 03:24:48;;;;;;;4.63;3.72;;;11.10;99.90;;;;;;5072153;28;20104;-80
2021/04/30 03:27:13;;;;;;;4.45;3.75;;;11.10;99.90;;;;;;5072428;28;20031;-81
2021/04/30 03:29:39;;;;;;;5.43;3.80;;;11.00;99.90;;;;;;5071761;28;20483;-84
2021/04/30 03:32:07;;;;;;;6.47;4.00;;;11.10;99.90;;;;;;5072145;28;20385;-83
2021/04/30 03:34:34;;;;;;;5.82;3.53;;;11.00;99.90;;;;;;5072263;28;20042;-80
2021/04/30 03:37:00;;;;;;;5.13;3.42;;;11.10;99.90;;;;;;5072172;28;20024;-80
2021/04/30 03:39:25;;;;;;;4.03;3.30;;;11.00;99.90;;;;;;5073106;28;20031;-82
2021/04/30 03:41:51;;;;;;;4.32;3.58;;;11.00;99.90;;;;;;5072303;28;20383;-82
2021/04/30 03:44:17;;;;;;;5.13;3.38;;;11.00;99.90;;;;;;5072192;28;20028;-81
2021/04/30 03:46:42;;;;;;;5.57;3.60;;;11.00;99.90;;;;;;5072178;28;20029;-81
2021/04/30 03:49:08;;;;;;;5.53;4.05;;;11.10;99.90;;;;;;5072144;28;20040;-82
2021/04/30 03:51:34;;;;;;;9.48;4.80;;;11.00;99.90;;;;;;5073289;28;20025;-81
2021/04/30 03:53:59;;;;;;;7.97;3.80;;;11.00;99.90;;;;;;5072237;28;20119;-83
2021/04/30 03:56:25;;;;;;;6.80;3.88;;;11.00;99.90;;;;;;5071992;28;20107;-83
2021/04/30 03:58:51;;;;;;;4.50;3.75;;;11.00;99.90;;;;;;5071887;28;20113;-81
2021/04/30 04:01:17;;;;;;;6.30;4.18;;;10.90;99.90;;;;;;5071706;28;20041;-83
2021/04/30 04:03:42;;;;;;;7.13;3.97;;;10.90;99.90;;;;;;5073079;28;20416;-81
2021/04/30 04:06:08;;;;;;;6.25;4.68;;;10.90;99.90;;;;;;5071826;28;20056;-81
2021/04/30 04:08:33;;;;;;;7.78;5.45;;;10.90;99.90;;;;;;5071509;28;20043;-84
2021/04/30 04:10:59;;;;;;;9.77;7.65;;;10.90;99.90;;;;;;5071690;28;20024;-81
2021/04/30 04:13:26;;;;;;;13.13;9.80;;;11.00;99.90;;;;;;5071608;28;20143;-80
2021/04/30 04:15:54;;;;;;;11.77;9.48;;;11.00;99.90;;;;;;5071415;28;20111;-81
2021/04/30 04:18:23;;;;;;;10.35;8.82;;;11.10;99.90;;;;;;5071618;28;20115;-82
2021/04/30 04:20:49;;;;;;;10.02;8.43;;;11.10;99.90;;;;;;5071911;28;20078;-80
2021/04/30 04:23:14;;;;;;;12.90;9.13;;;11.10;99.90;;;;;;5071958;28;20020;-83
2021/04/30 04:25:40;;;;;;;12.80;10.77;;;11.20;99.90;;;;;;5073035;28;20025;-80
2021/04/30 04:28:06;;;;;;;13.43;8.85;;;11.20;99.90;;;;;;5071550;28;20025;-81
2021/04/30 04:30:32;;;;;;;10.48;7.97;;;11.20;99.90;;;;;;5071907;28;20225;-81
2021/04/30 04:32:58;;;;;;;12.35;8.82;;;11.30;99.90;;;;;;5072679;28;20021;-81
2021/04/30 04:35:24;;;;;;;9.02;7.30;;;11.20;99.90;;;;;;5071607;28;20529;-81
2021/04/30 04:37:50;;;;;;;7.00;5.93;;;11.20;99.90;;;;;;5071158;28;20021;-81
2021/04/30 04:40:16;;;;;;;5.13;3.65;;;11.30;99.90;;;;;;5070912;28;20119;-79
2021/04/30 04:42:43;;;;;;;5.35;4.85;;;11.60;99.90;;;;;;5076416;28;20028;-79
2021/04/30 04:45:10;;;;;;;7.63;5.53;;;11.70;99.90;;;;;;5075063;28;20344;-79
2021/04/30 04:47:35;;;;;;;9.18;5.47;;;11.70;99.90;;;;;;5080655;28;20021;-80
2021/04/30 04:50:01;;;;;;;8.48;6.43;;;11.60;99.90;;;;;;5074721;28;20032;-81
2021/04/30 04:52:27;;;;;;;11.32;7.45;;;11.70;99.90;;;;;;5074711;28;20032;-80
2021/04/30 04:54:52;;;;;;;9.45;7.07;;;11.80;99.90;;;;;;5075247;28;20043;-80
2021/04/30 04:57:18;;;;;;;9.10;5.72;;;11.80;99.90;;;;;;5074542;28;20066;-80
2021/04/30 04:59:44;;;;;;;11.43;5.75;;;11.90;99.90;;;;;;5075018;28;20031;-81
2021/04/30 05:02:09;;;;;;;9.32;6.15;;;11.90;99.90;;;;;;5074921;28;20499;-80
2021/04/30 05:04:35;;;;;;;6.68;5.80;;;11.80;99.90;;;;;;5074873;28;20537;-80
2021/04/30 05:07:00;;;;;;;9.48;6.18;;;11.90;99.90;;;;;;5074916;28;20047;-80
2021/04/30 05:09:28;;;;;;;6.68;5.47;;;11.90;99.90;;;;;;5074806;28;20480;-82
2021/04/30 05:11:54;;;;;;;8.60;5.88;;;11.90;99.90;;;;;;5074463;28;20119;-80
2021/04/30 05:14:20;;;;;;;7.32;5.63;;;12.00;99.90;;;;;;5077197;28;20115;-80
2021/04/30 05:16:46;;;;;;;10.13;7.38;;;12.00;99.90;;;;;;5074762;28;20052;-81
2021/04/30 05:19:11;;;;;;;7.60;6.05;;;12.00;99.90;;;;;;5074480;28;20066;-80
2021/04/30 05:21:40;;;;;;;8.25;6.90;;;12.10;99.90;;;;;;5075604;28;20074;-80
2021/04/30 05:24:07;;;;;;;6.80;5.20;;;12.10;99.90;;;;;;5074305;28;20035;-80
2021/04/30 05:26:33;;;;;;;8.27;5.57;;;12.10;99.90;;;;;;5074156;28;20380;-83
2021/04/30 05:28:59;;;;;;;7.88;5.85;;;12.20;99.90;;;;;;5075431;28;20029;-83
2021/04/30 05:31:25;;;;;;;7.40;5.18;;;12.20;99.90;;;;;;5074251;28;20025;-82
2021/04/30 05:33:51;;;;;;;7.25;5.20;;;12.20;99.90;;;;;;5074452;28;20031;-80
2021/04/30 05:36:17;;;;;;;7.55;6.03;;;12.20;99.90;;;;;;5074515;28;20387;-80
2021/04/30 05:38:43;;;;;;;7.07;4.55;;;12.30;99.90;;;;;;5074316;28;20362;-80
2021/04/30 05:41:09;;;;;;;8.32;5.80;;;12.30;99.90;;;;;;5074520;28;20077;-80
2021/04/30 05:43:35;;;;;;;7.80;4.18;;;12.30;99.90;;;;;;5073997;28;20039;-80
2021/04/30 05:46:01;;;;;;;8.70;5.10;;;12.30;99.90;;;;;;5073913;28;20025;-81
2021/04/30 05:48:26;;;;;;;6.85;4.38;;;12.40;99.90;;;;;;5073948;28;20029;-81
2021/04/30 05:50:52;;;;;;;6.28;4.60;;;12.40;99.90;;;;;;5075262;28;20539;-79
2021/04/30 05:53:18;;;;;;;6.30;5.07;;;12.40;99.90;;;;;;5073915;28;20434;-81
2021/04/30 05:55:43;;;;;;;6.80;5.07;;;12.50;99.90;;;;;;5074130;28;20095;-81
2021/04/30 05:58:09;;;;;;;9.55;5.07;;;12.60;99.90;;;;;;5074241;28;20052;-80
2021/04/30 06:00:35;;;;;;;8.23;5.25;;;12.60;99.90;;;;;;5073587;28;20402;-79
2021/04/30 06:03:00;;;;;;;8.48;5.32;;;12.70;99.90;;;;;;5073794;28;20032;-80
2021/04/30 06:05:26;;;;;;;6.88;4.32;;;12.70;99.90;;;;;;5073444;28;20024;-83
2021/04/30 06:07:52;;;;;;;5.30;4.50;;;12.80;99.90;;;;;;5073535;28;20075;-79
2021/04/30 06:10:17;;;;;;;6.57;4.70;;;12.80;99.90;;;;;;5075094;28;20032;-81
2021/04/30 06:12:43;;;;;;;7.07;4.47;;;12.80;99.90;;;;;;5075115;28;20031;-83
2021/04/30 06:15:09;;;;;;;4.88;4.38;;;12.80;99.90;;;;;;5075160;28;20024;-80
2021/04/30 06:17:35;;;;;;;8.27;4.40;;;12.90;99.90;;;;;;5073819;28;20074;-82
2021/04/30 06:20:00;;;;;;;10.35;4.82;;;12.90;99.90;;;;;;5073148;28;20024;-81
2021/04/30 06:22:26;;;;;;;5.45;4.30;;;12.90;99.90;;;;;;5073498;28;20471;-83
2021/04/30 06:24:52;;;;;;;12.38;5.00;;;12.90;99.90;;;;;;5073385;28;20021;-81
2021/04/30 06:27:18;;;;;;;4.78;4.18;;;13.00;99.90;;;;;;5073762;28;20029;-79
2021/04/30 06:29:43;;;;;;;5.50;4.13;;;13.10;99.90;;;;;;5073644;28;20036;-81
2021/04/30 06:32:09;;;;;;;6.72;4.15;;;13.20;99.90;;;;;;5073277;28;20044;-81
2021/04/30 06:34:35;;;;;;;7.35;4.57;;;13.30;99.90;;;;;;5073670;28;20106;-81
2021/04/30 06:37:00;;;;;;;8.95;4.55;;;13.50;99.90;;;;;;5073772;28;20052;-80
2021/04/30 06:39:27;;;;;;;7.03;4.20;;;13.60;99.90;;;;;;5074866;28;20024;-81
2021/04/30 06:41:53;;;;;;;7.50;4.40;;;13.60;99.90;;;;;;5073469;28;20056;-82
2021/04/30 06:44:19;;;;;;;4.95;3.75;;;13.60;99.90;;;;;;5073855;28;20066;-84
2021/04/30 06:46:45;;;;;;;10.32;6.97;;;13.60;99.90;;;;;;5074040;28;20016;-80
2021/04/30 06:49:11;;;;;;;8.18;4.97;;;13.70;99.90;;;;;;5075676;28;20492;-81
2021/04/30 06:51:37;;;;;;;8.52;5.18;;;14.00;99.90;;;;;;5075524;28;20028;-80
2021/04/30 06:54:03;;;;;;;5.80;3.88;;;14.10;99.90;;;;;;5073942;28;20025;-85
2021/04/30 06:56:29;;;;;;;5.68;4.00;;;14.30;99.90;;;;;;5073377;28;20364;-80
2021/04/30 06:58:56;;;;;;;5.93;4.45;;;14.30;99.90;;;;;;5073242;28;20048;-82
2021/04/30 07:01:21;;;;;;;11.05;4.78;;;14.40;99.90;;;;;;5074570;28;20042;-84
2021/04/30 07:03:47;;;;;;;6.53;4.03;;;14.30;99.90;;;;;;5072351;28;20025;-82
2021/04/30 07:06:16;;;;;;;5.75;3.55;;;14.10;99.90;;;;;;5074347;28;20106;-82
2021/04/30 07:08:42;;;;;;;7.75;5.18;;;13.90;99.90;;;;;;5074359;28;20086;-84
2021/04/30 07:11:08;;;;;;;5.57;5.03;;;13.80;99.90;;;;;;5073257;28;20036;-84
2021/04/30 07:13:37;;;;;;;7.25;4.38;;;13.70;99.90;;;;;;5073103;28;20025;-86
2021/04/30 07:16:04;;;;;;;13.68;5.57;;;13.50;99.90;;;;;;5074719;28;20028;-85
2021/04/30 07:18:30;;;;;;;14.15;5.53;;;13.70;99.90;;;;;;5073793;28;20048;-85
2021/04/30 07:20:56;;;;;;;9.38;4.07;;;14.10;99.90;;;;;;5073309;28;20059;-82
2021/04/30 07:23:21;;;;;;;5.75;3.95;;;14.30;99.90;;;;;;5072447;28;20020;-85
2021/04/30 07:25:48;;;;;;;8.35;4.30;;;14.30;99.90;;;;;;5072867;28;20024;-84
2021/04/30 07:28:14;;;;;;;6.53;4.32;;;14.10;99.90;;;;;;5072021;28;20045;-82
2021/04/30 07:30:39;;;;;;;6.53;4.68;;;14.10;99.90;;;;;;5073522;28;20059;-82
2021/04/30 07:33:05;;;;;;;5.75;4.78;;;14.20;99.90;;;;;;5072607;28;20020;-81
2021/04/30 07:35:31;;;;;;;9.40;7.18;;;14.30;99.90;;;;;;5072134;28;20156;-81
2021/04/30 07:37:56;;;;;;;6.80;5.05;;;14.40;99.90;;;;;;5072235;28;20082;-82
2021/04/30 07:40:22;;;;;;;4.75;3.95;;;14.40;99.90;;;;;;5072444;28;20498;-83
2021/04/30 07:42:47;;;;;;;7.45;4.88;;;14.40;99.90;;;;;;5073007;28;20463;-81
2021/04/30 07:45:14;;;;;;;4.97;4.00;;;14.30;99.90;;;;;;5073195;28;20101;-82
2021/04/30 07:47:39;;;;;;;5.55;4.35;;;14.30;99.90;;;;;;5071627;28;20472;-82
2021/04/30 07:50:06;;;;;;;6.35;4.50;;;14.30;99.90;;;;;;5071721;28;20174;-82
2021/04/30 07:52:32;;;;;;;6.53;4.65;;;14.20;99.90;;;;;;5071833;28;20021;-80
2021/04/30 07:55:01;;;;;;;5.65;3.72;;;14.20;99.90;;;;;;5072315;28;20027;-82
2021/04/30 07:57:30;;;;;;;5.82;4.38;;;14.30;99.90;;;;;;5071902;28;20459;-82
2021/04/30 07:59:56;;;;;;;5.88;4.13;;;14.30;99.90;;;;;;5071812;28;20028;-84
2021/04/30 08:02:22;;;;;;;7.05;5.00;;;14.40;99.90;;;;;;5073104;28;20025;-84
2021/04/30 08:04:48;;;;;;;8.60;4.60;;;14.50;99.90;;;;;;5071404;28;20032;-86
2021/04/30 08:07:14;;;;;;;6.18;4.65;;;14.80;99.90;;;;;;5072077;28;20115;-81
2021/04/30 08:09:43;;;;;;;7.25;5.43;;;15.10;99.90;;;;;;5072117;28;20387;-83
2021/04/30 08:12:09;;;;;;;5.53;4.22;;;15.40;99.90;;;;;;5072384;28;20021;-84
2021/04/30 08:14:34;;;;;;;6.38;3.90;;;15.50;99.90;;;;;;5071678;28;20031;-87
2021/04/30 08:17:00;;;;;;;5.43;3.95;;;15.60;99.90;;;;;;5071033;28;20039;-84
2021/04/30 08:19:26;;;;;;;5.85;3.85;;;15.80;99.90;;;;;;5070780;28;20016;-85
2021/04/30 08:21:53;;;;;;;4.28;3.72;;;15.90;99.90;;;;;;5072011;28;20020;-84
2021/04/30 08:24:22;;;;;;;4.13;3.30;;;16.00;99.90;;;;;;5266285;22;20195;-89
2021/04/30 08:26:48;;;;;;;4.53;3.40;;;15.80;99.00;;;;;;5092442;23;20032;-89
2021/04/30 08:29:16;;;;;;;10.80;6.90;;;15.60;99.90;;;;;;5081006;28;20731;-83
2021/04/30 08:31:42;;;;;;;13.60;8.35;;;15.70;99.90;;;;;;5052116;28;20456;-83
2021/04/30 08:34:08;;;;;;;5.22;3.92;;;15.90;99.90;;;;;;5052385;28;20032;-85
2021/04/30 08:36:34;;;;;;;7.20;5.90;;;16.10;99.90;;;;;;5052211;28;20421;-81
2021/04/30 08:38:59;;;;;;;5.43;4.40;;;16.30;99.40;;;;;;5052270;28;20088;-81
2021/04/30 08:41:26;;;;;;;4.00;2.95;;;16.30;99.50;;;;;;5051947;28;20049;-84
2021/04/30 08:43:52;;;;;;;4.13;3.00;;;16.40;97.80;;;;;;5051418;28;20025;-80
2021/04/30 08:46:19;;;;;;;5.78;2.90;;;16.50;97.40;;;;;;5050986;28;20111;-81
2021/04/30 08:48:45;;;;;;;4.65;3.08;;;16.60;96.60;;;;;;5050560;28;20526;-80
2021/04/30 08:51:11;;;;;;;5.80;2.80;;;16.70;97.30;;;;;;5050994;28;20024;-87
2021/04/30 08:53:40;;;;;;;3.83;2.60;;;16.70;95.20;;;;;;5051551;28;20031;-84
2021/04/30 08:56:06;;;;;;;5.65;2.60;;;16.70;96.10;;;;;;5052637;28;20480;-83
2021/04/30 08:58:37;;;;;;;4.63;3.03;;;16.70;95.60;;;;;;5051667;28;20120;-83
2021/04/30 09:01:04;;;;;;;3.03;2.38;;;16.80;96.30;;;;;;5051550;28;20029;-80
2021/04/30 09:03:33;;;;;;;6.20;2.63;;;16.80;95.10;;;;;;5051506;28;20029;-86
2021/04/30 09:05:59;;;;;;;5.38;2.70;;;16.80;94.90;;;;;;5051831;28;20029;-82
2021/04/30 09:08:25;;;;;;;20.85;19.25;;;16.80;94.00;;;;;;5053011;28;20029;-79
2021/04/30 09:10:51;;;;;;;8.50;3.90;;;16.90;95.10;;;;;;5051514;28;20433;-79
2021/04/30 09:13:20;;;;;;;6.00;2.72;;;17.00;96.80;;;;;;5052291;28;20090;-85
2021/04/30 09:15:48;;;;;;;3.80;2.90;;;16.90;92.30;;;;;;5053075;28;20025;-81
2021/04/30 09:18:21;;;;;;;6.43;2.58;;;16.90;94.40;;;;;;5051966;28;20036;-82
2021/04/30 09:20:48;;;;;;;3.60;2.50;;;17.00;91.90;;;;;;5068784;28;20028;-78
2021/04/30 09:23:31;;;;;;;7.00;2.55;;;17.00;92.30;;;;;;5051473;28;20448;-81
2021/04/30 09:25:57;;;;;;;4.55;2.30;;;17.00;93.70;;;;;;5068511;28;20057;-81
2021/04/30 09:28:23;;;;;;;5.20;2.70;;;17.10;93.00;;;;;;5055895;28;20032;-79
2021/04/30 09:30:48;;;;;;;4.20;2.88;;;17.30;93.00;;;;;;5054632;28;20047;-78
2021/04/30 09:33:21;;;;;;;5.45;2.72;;;17.60;92.90;;;;;;5055824;28;20432;-79
2021/04/30 09:35:52;;;;;;;6.53;4.13;;;17.60;93.70;;;;;;5071257;28;20025;-82
2021/04/30 09:38:28;;;;;;;6.75;3.05;;;17.70;92.90;;;;;;5054175;28;20426;-81
2021/04/30 09:41:15;;;;;;;7.78;3.50;;;17.70;92.80;;;;;;5054463;28;20021;-80
2021/04/30 09:43:44;;;;;;;5.13;3.42;;;17.50;93.80;;;;;;5054342;28;20502;-78
2021/04/30 09:46:31;;;;;;;7.60;4.35;;;17.40;93.10;;;;;;5053968;28;20028;-81
2021/04/30 09:49:04;;;;;;;8.70;5.13;;;17.40;93.90;;;;;;5055161;28;20086;-79
2021/04/30 09:51:44;;;;;;;11.85;5.80;;;17.40;93.90;;;;;;5053893;28;20014;-78
2021/04/30 09:54:25;;;;;;;17.05;6.47;;;17.30;94.10;;;;;;5055270;28;20115;-79
2021/04/30 09:57:09;;;;;;;12.32;5.03;;;17.10;94.60;;;;;;5053017;28;20040;-82
2021/04/30 09:59:37;;;;;;;11.80;3.33;;;17.10;94.50;;;;;;5054943;28;20027;-81
2021/04/30 10:02:11;;;;;;;9.82;4.90;;;17.00;93.70;;;;;;5056571;28;20163;-86
2021/04/30 10:04:38;;;;;;;4.82;2.83;;;17.00;94.20;;;;;;5055421;28;20064;-85
2021/04/30 10:07:05;;;;;;;5.93;2.88;;;17.10;93.80;;;;;;5055253;28;20029;-85
2021/04/30 10:09:32;;;;;;;4.82;2.42;;;17.00;93.00;;;;;;5055364;28;20126;-85
2021/04/30 10:11:58;;;;;;;7.63;3.38;;;17.00;93.40;;;;;;5054015;28;20099;-83
2021/04/30 10:14:24;;;;;;;4.22;2.70;;;17.10;94.20;;;;;;5055197;28;20036;-79
2021/04/30 10:16:51;;;;;;;4.60;2.60;;;17.30;93.70;;;;;;5053857;28;20096;-84
2021/04/30 10:19:18;;;;;;;12.25;7.65;;;17.40;94.30;;;;;;5055556;28;20107;-84
2021/04/30 10:21:45;;;;;;;18.10;7.97;;;17.60;92.40;;;;;;5055427;28;20472;-82
2021/04/30 10:24:18;;;;;;;5.95;4.28;;;17.70;92.50;;;;;;5053383;28;20035;-79
2021/04/30 10:26:44;;;;;;;10.90;3.72;;;17.70;92.30;;;;;;5054033;28;20049;-79
2021/04/30 10:29:15;;;;;;;10.68;2.78;;;17.60;92.50;;;;;;5053743;28;20037;-79
2021/04/30 10:31:46;;;;;;;4.35;2.65;;;17.70;92.60;;;;;;5054291;28;20040;-83
2021/04/30 10:34:20;;;;;;;4.18;3.13;;;17.70;92.20;;;;;;5052011;28;20027;-77
2021/04/30 10:36:50;;;;;;;3.45;2.38;;;17.60;92.30;;;;;;5052374;28;20055;-76
2021/04/30 10:39:53;;;;;;;5.28;2.78;;;17.60;92.40;;;;;;5052936;28;20040;-81
2021/04/30 10:42:22;;;;;;;5.10;2.60;;;17.40;92.50;;;;;;5052070;28;20051;-79
2021/04/30 10:44:58;;;;;;;6.63;2.75;;;17.50;91.70;;;;;;5053533;28;20472;-80
2021/04/30 10:47:24;;;;;;;4.30;2.50;;;17.50;91.80;;;;;;5053274;28;20104;-80
2021/04/30 10:50:20;;;;;;;4.15;2.22;;;17.50;92.90;;;;;;5053644;28;20032;-78
2021/04/30 10:52:47;;;;;;;4.67;2.30;;;17.50;91.70;;;;;;5052929;28;20053;-76
2021/04/30 10:55:16;;;;;;;4.75;2.33;;;17.50;93.00;;;;;;5053811;28;20080;-79
2021/04/30 10:58:02;;;;;;;3.40;2.53;;;17.50;92.40;;;;;;5053909;28;20029;-79
2021/04/30 11:00:37;;;;;;;3.40;2.40;;;17.50;92.50;;;;;;5053254;28;20021;-79
2021/04/30 11:03:15;;;;;;;4.63;2.67;;;17.40;94.20;;;;;;5053337;28;20029;-83
2021/04/30 11:06:05;;;;;;;9.80;3.33;;;17.50;93.60;;;;;;5053090;28;20539;-78
2021/04/30 11:08:55;;;;;;;5.78;2.83;;;17.50;93.30;;;;;;5052570;28;20029;-80
2021/04/30 11:11:50;;;;;;;5.72;2.60;;;17.50;93.90;;;;;;5051823;28;20096;-77
2021/04/30 11:14:18;;;;;;;3.85;2.75;;;17.60;92.80;;;;;;5052762;28;20044;-79
2021/04/30 11:16:45;;;;;;;3.88;2.40;;;17.70;92.70;;;;;;5051741;28;20056;-78
2021/04/30 11:19:10;;;;;;;7.57;2.40;;;17.80;93.30;;;;;;5053211;28;20047;-78
2021/04/30 11:22:12;;;;;;;7.53;2.70;;;18.00;92.60;;;;;;5051573;28;20025;-81
2021/04/30 11:24:44;;;;;;;5.90;2.50;;;18.10;92.90;;;;;;5052786;28;20139;-78
2021/04/30 11:27:22;;;;;;;3.83;2.50;;;18.20;91.80;;;;;;5050984;28;20048;-76
2021/04/30 11:29:48;;;;;;;6.07;2.70;;;18.10;91.10;;;;;;5052385;28;20029;-80
2021/04/30 11:32:23;;;;;;;2.10;1.90;;;18.30;89.80;;;;;;5052386;28;20105;-82
2021/04/30 11:34:58;;;;;;;3.20;2.22;;;18.40;90.10;;;;;;5052369;28;20021;-78
2021/04/30 11:37:25;;;;;;;3.95;2.13;;;18.60;89.70;;;;;;5052451;28;20078;-78
2021/04/30 11:39:59;;;;;;;4.47;2.22;;;18.70;88.80;;;;;;5052597;28;20021;-79
2021/04/30 11:42:29;;;;;;;5.20;2.30;;;18.60;89.40;;;;;;5052891;28;20024;-81
2021/04/30 11:44:55;;;;;;;4.47;2.03;;;18.60;87.10;;;;;;5051664;28;20383;-78
2021/04/30 11:47:39;;;;;;;3.72;2.75;;;18.40;88.70;;;;;;5052206;28;20021;-78
2021/04/30 11:50:09;;;;;;;4.10;2.42;;;18.20;88.30;;;;;;5052312;28;20040;-79
2021/04/30 11:52:41;;;;;;;5.65;1.98;;;18.00;88.80;;;;;;5052741;28;20201;-80
2021/04/30 11:55:10;;;;;;;5.30;2.15;;;17.80;89.00;;;;;;5051318;28;20021;-82
2021/04/30 11:57:36;;;;;;;6.60;2.08;;;17.70;90.10;;;;;;5045692;28;20017;-79
2021/04/30 12:00:08;;;;;;;4.25;2.10;;;17.70;90.40;;;;;;5033020;28;20048;-80
2021/04/30 12:02:34;;;;;;;4.28;2.20;;;17.70;89.90;;;;;;5032923;28;20544;-80
2021/04/30 12:04:59;;;;;;;3.30;1.83;;;18.00;89.60;;;;;;5033119;28;20101;-79
2021/04/30 12:07:26;;;;;;;3.22;2.00;;;18.10;88.30;;;;;;5031426;28;20052;-81
2021/04/30 12:09:53;;;;;;;4.28;1.73;;;18.30;88.30;;;;;;5032787;28;20033;-79
2021/04/30 12:12:27;;;;;;;6.80;2.08;;;18.40;86.60;;;;;;5032561;28;20468;-81
2021/04/30 12:15:01;;;;;;;5.75;2.25;;;18.60;85.90;;;;;;5032601;28;20071;-81
2021/04/30 12:17:37;;;;;;;2.13;1.40;;;18.90;83.70;;;;;;5032897;28;20048;-82
2021/04/30 12:20:24;;;;;;;3.53;1.88;;;19.20;85.00;;;;;;5031613;28;20029;-80
2021/04/30 12:22:59;;;;;;;4.85;1.98;;;19.30;81.80;;;;;;5032678;28;20017;-81
2021/04/30 12:25:33;;;;;;;6.90;2.15;;;19.20;82.50;;;;;;5031957;28;20099;-82
2021/04/30 12:28:27;;;;;;;4.53;2.07;;;19.10;82.00;;;;;;5032369;28;20212;-80
2021/04/30 12:31:04;;;;;;;2.95;2.20;;;19.00;81.30;;;;;;5033071;28;20445;-79
2021/04/30 12:33:38;;;;;;;4.28;1.95;;;19.00;82.40;;;;;;5032504;28;20033;-80
2021/04/30 12:36:15;;;;;;;2.60;1.70;;;18.90;81.40;;;;;;5031481;28;20377;-82
2021/04/30 12:38:44;;;;;;;5.32;2.10;;;19.00;81.70;;;;;;5040952;28;20141;-83
2021/04/30 12:41:18;;;;;;;2.58;1.60;;;18.80;80.60;;;;;;5073680;28;20459;-79
2021/04/30 12:43:48;;;;;;;4.60;1.73;;;18.70;81.80;;;;;;5071495;28;20024;-83
2021/04/30 12:46:26;;;;;;;3.75;1.50;;;18.70;82.40;;;;;;5072768;28;20353;-81
2021/04/30 12:48:54;;;;;;;3.17;1.60;;;18.70;83.60;;;;;;5071814;28;20036;-81
2021/04/30 12:51:30;;;;;;;5.00;1.50;;;18.60;82.00;;;;;;5071760;28;20111;-81